Liste des engag茅(e)s
Classement
PDF
   
         
   
 
Pos N掳 Nom Pr茅nom Pays Temps Ecart Pl. Cat. Pl. Sexe Club
1 1083 ROCHE Enzo 00:14:57 1 MI 1 M Sdis 07 - ard猫ches
2 1092 PRADIER Matt茅o 00:15:05 08 2 MI 2 M Sdis 63 - puy de d么me
3 1050 GUILLEMINOT Emile 00:15:06 09 3 MI 3 M Sdis 74 - haute-savoie
4 1089 GOLIARD Louis 00:15:10 13 4 MI 4 M Sdis 63 - puy de d么me
5 967 MATHIEU THIBAULT 00:15:14 17 5 MI 5 M Sdis 01 - Ain
6 955 GLAIZAL ANTOINE 00:15:16 19 6 MI 6 M Sdis 01 - Ain
7 1063 BOURGEON Laurent 00:15:32 35 7 MI 7 M Sdis 03 - allier
8 942 FERREIRA LEO 00:15:33 36 8 MI 8 M Sdis 01 - Ain
9 1084 ANTRESSANGLE Emeric 00:15:44 47 9 MI 9 M Sdis 07 - ard猫ches
10 1052 CLAVEL TISSOT William 00:15:50 53 10 MI 10 M Sdis 74 - haute-savoie
11 993 AUGER POLIGNE BENJAMIN 00:16:00 01:03 11 MI 11 M Sdis 01 - Ain
12 895 SLIMANE BILAL 00:16:00 01:03 12 MI 12 M Sdis 01 - Ain
13 931 MOLLION ROMARIC 00:16:25 01:28 13 MI 13 M Sdis 01 - Ain
14 1091 DELAPORTE Romain 00:16:31 01:34 14 MI 14 M Sdis 63 - puy de d么me
15 980 ERNOULT ALEXANDRE 00:16:33 01:36 15 MI 15 M Sdis 01 - Ain
16 1061 BELIN Leo-paul 00:16:33 01:36 16 MI 16 M Sdis 03 - allier
17 1097 TARCHOUNI Ismael 00:16:33 01:36 17 MI 17 M Sdmis 69 - rh么ne
18 1085 ANTERION Paulin 00:16:36 01:39 18 MI 18 M Sdis 07 - ard猫ches
19 932 VOLLET ANTONIN 00:16:41 01:44 19 MI 19 M Sdis 01 - Ain
20 1062 DEVAUX Colin 00:16:45 01:48 20 MI 20 M Sdis 03 - allier
21 1010 PRUNIER TOM 00:16:47 01:50 21 MI 21 M Sdis 01 - Ain
22 914 ZUCCALI LUCAS 00:16:47 01:50 22 MI 22 M Sdis 01 - Ain
23 1077 FEDEROWICZ Eden 00:16:48 01:51 23 MI 23 M Sdis 26 - dr么me
24 1082 NICOLAS Camille 00:16:49 01:52 24 MI 24 M Sdmis 69 - rh么ne
25 1015 ROTHEVAL WILLIAM 00:17:01 02:04 25 MI 25 M Sdis 01 - Ain
26 887 BUATHIER MAXIME 00:17:05 02:08 26 MI 26 M Sdis 01 - Ain
27 1087 RIVIERE Gaspar 00:17:06 02:09 27 MI 27 M Sdis 63 - puy de d么me
28 1068 MAATALA Yassin 00:17:06 02:09 28 MI 28 M Sdmis 69 - rh么ne
29 889 VARVARANDE MATHIS 00:17:10 02:13 29 MI 29 M Sdis 01 - Ain
30 920 GAY THEOPHILE 00:17:10 02:13 30 MI 30 M Sdis 01 - Ain
31 910 PERNET LEON 00:17:21 02:24 31 MI 31 M Sdis 01 - Ain
32 1094 TREILLE Elian 00:17:24 02:27 32 MI 32 M Sdis 63 - puy de d么me
33 1096 AUCLAIR Adrien 00:17:29 02:32 33 MI 33 M Sdis 63 - puy de d么me
34 969 SIMONIN ARTHUR 00:17:30 02:33 34 MI 34 M Sdis 01 - Ain
35 1047 SUYKERBUYK TIM 00:17:35 02:38 35 MI 35 M Sdis 01 - Ain
36 1079 VALAYER Antoine 00:17:35 02:38 36 MI 36 M Sdis 26 - dr么me
37 956 MANDRILLON JOSHUA 00:17:37 02:40 37 MI 37 M Sdis 01 - Ain
38 1054 CALPETARD Mathis 00:17:41 02:44 38 MI 38 M Sdis 38 - is猫re
39 958 PAYET REMY 00:17:45 02:48 39 MI 39 M Sdis 01 - Ain
40 908 COLLIGNON MAXIME 00:17:46 02:49 40 MI 40 M Sdis 01 - Ain
41 1041 BARBET CLEMENT 00:17:48 02:51 41 MI 41 M Sdis 01 - Ain
42 945 BALLAND DAMIEN 00:17:50 02:53 42 MI 42 M Sdis 01 - Ain
43 952 PELILLO THEO 00:17:51 02:54 43 MI 43 M Sdis 01 - Ain
44 893 NEIVA TINO 00:17:52 02:55 44 MI 44 M Sdis 01 - Ain
45 902 PANCHOT CLEMENT 00:17:53 02:56 45 MI 45 M Sdis 01 - Ain
46 1064 HAOUACHE Aksel 00:17:53 02:56 46 MI 46 M Sdis 03 - allier
47 1095 COTTOUR R茅my 00:17:56 02:59 47 MI 47 M Sdis 63 - puy de d么me
48 1076 DUMAS Antonin 00:18:07 03:10 48 MI 48 M Sdis 26 - dr么me
49 1006 SERGENT ROMAIN 00:18:10 03:13 49 MI 49 M Sdis 01 - Ain
50 984 RIVAT Loan 00:18:11 03:14 50 MI 50 M Sdis 01 - Ain
51 1042 BRIGIDO LUCAS 00:18:11 03:14 51 MI 51 M Sdis 01 - Ain
52 897 DARCHY JEAN-BASTIEN 00:18:14 03:17 52 MI 52 M Sdis 01 - Ain
53 1093 CLOSTRE Kilian 00:18:16 03:19 53 MI 53 M Sdis 63 - puy de d么me
54 982 MARTINS SACHA 00:18:17 03:20 54 MI 54 M Sdis 01 - Ain
55 1071 ABDESSELAMYENE Nawfel 00:18:17 03:20 55 MI 55 M Sdmis 69 - rh么ne
56 1081 DELPLANQUE Dorian 00:18:17 03:20 56 MI 56 M Sdis 26 - dr么me
57 968 RETIF FABIAN 00:18:17 03:20 57 MI 57 M Sdis 01 - Ain
58 963 BONNE Romaric 00:18:18 03:21 58 MI 58 M Sdis 01 - Ain
59 949 GARNIER DAMIEN 00:18:23 03:26 59 MI 59 M Sdis 01 - Ain
60 1023 LAVIGNE JULIEN 00:18:26 03:29 60 MI 60 M Sdis 01 - Ain
61 1067 MEYDAN Nassim-said 00:18:29 03:32 61 MI 61 M Sdmis 69 - rh么ne
62 972 BRANDELET THOMAS 00:18:30 03:33 62 MI 62 M Sdis 01 - Ain
63 916 CHARLERY ETHAN 00:18:30 03:33 63 MI 63 M Sdis 01 - Ain
64 1049 REDJEM NOAH 00:18:31 03:34 64 MI 64 M Sdis 01 - Ain
65 1040 VINCENT ANTHONY 00:18:32 03:35 65 MI 65 M Sdis 01 - Ain
66 1045 MOSSU YANN 00:18:36 03:39 66 MI 66 M Sdis 01 - Ain
67 1021 VEUILLET ELLIOT 00:18:38 03:41 67 MI 67 M Sdis 01 - Ain
68 1046 ROCHEFEUILLE THIBAULT 00:18:39 03:42 68 MI 68 M Sdis 01 - Ain
69 1058 QUARESMA Benjamin 00:18:43 03:46 69 MI 69 M Sdis 38 - is猫re
70 1055 KINGET Ilian 00:18:44 03:47 70 MI 70 M Sdis 38 - is猫re
71 1088 PUYFOULHOUX Loan 00:18:51 03:54 71 MI 71 M Sdis 63 - puy de d么me
72 1073 GARCIA-BOUILHOL C茅lyo 00:18:52 03:55 72 MI 72 M Sdmis 69 - rh么ne
73 1048 TEISSIER YANNICK 00:18:55 03:58 73 MI 73 M Sdis 01 - Ain
74 996 HUBER ANTOINE 00:18:59 04:02 74 MI 74 M Sdis 01 - Ain
75 989 DUNAND MAXIM 00:19:03 04:06 75 MI 75 M Sdis 01 - Ain
76 1012 AULEN ETIENNE 00:19:04 04:07 76 MI 76 M Sdis 01 - Ain
77 947 CHASTAN SAMUEL 00:19:05 04:08 77 MI 77 M Sdis 01 - Ain
78 922 MALANDAIN ANAKIN 00:19:06 04:09 78 MI 78 M Sdis 01 - Ain
79 1013 COMTET EMILIEN 00:19:07 04:10 79 MI 79 M Sdis 01 - Ain
80 987 BONNOT BASTIEN 00:19:12 04:15 80 MI 80 M Sdis 01 - Ain
81 1001 COLAS ALEXIS 00:19:13 04:16 81 MI 81 M Sdis 01 - Ain
82 1022 GUILLOT-COMTET LUCAS 00:19:14 04:17 82 MI 82 M Sdis 01 - Ain
83 1056 LEMAIRE Lukas 00:19:20 04:23 83 MI 83 M Sdis 38 - is猫re
84 925 TURCHET FLORIAN 00:19:26 04:29 84 MI 84 M Sdis 01 - Ain
85 901 NICOLAS BAPTISTE 00:19:27 04:30 85 MI 85 M Sdis 01 - Ain
86 983 OPISSO ENZO 00:19:32 04:35 86 MI 86 M Sdis 01 - Ain
87 1070 FORESTIER Killian 00:19:33 04:36 87 MI 87 M Sdmis 69 - rh么ne
88 899 GERBER DAVID 00:19:40 04:43 88 MI 88 M Sdis 01 - Ain
89 1025 GONNEAU ALEXANDRE 00:19:43 04:46 89 MI 89 M Sdis 01 - Ain
90 1028 MIRA DYLAN 00:19:45 04:48 90 MI 90 M Sdis 01 - Ain
91 965 GOUIN FLORIAN 00:19:48 04:51 91 MI 91 M Sdis 01 - Ain
92 975 PAGET KYLLIAN 00:19:49 04:52 92 MI 92 M Sdis 01 - Ain
93 1069 LEMBERTHE Kenzo 00:19:50 04:53 93 MI 93 M Sdmis 69 - rh么ne
94 938 RAMEY ELIE 00:19:52 04:55 94 MI 94 M Sdis 01 - Ain
95 917 CHEVANCE QUENTIN 00:19:53 04:56 95 MI 95 M Sdis 01 - Ain
96 1034 JALUZOT ALEXANDRE 00:19:53 04:56 96 MI 96 M Sdis 01 - Ain
97 896 CHEVANU THOMAS 00:19:53 04:56 97 MI 97 M Sdis 01 - Ain
98 1080 VEGA Max 00:19:58 05:01 98 MI 98 M Sdis 26 - dr么me
99 973 DEL AGUILA CALISTO 00:20:03 05:06 99 MI 99 M Sdis 01 - Ain
100 986 BERTRAND ENZO 00:20:07 05:10 100 MI 100 M Sdis 01 - Ain
101 1016 DAVID ERWAN 00:20:08 05:11 101 MI 101 M Sdis 01 - Ain
102 921 GOTTLE DIMITRI 00:20:09 05:12 102 MI 102 M Sdis 01 - Ain
103 994 BACHMANN KAREL 00:20:12 05:15 103 MI 103 M Sdis 01 - Ain
104 1019 MARTINEZ NOAH 00:20:13 05:16 104 MI 104 M Sdis 01 - Ain
105 1000 BOYAT LUBIN 00:20:15 05:18 105 MI 105 M Sdis 01 - Ain
106 924 SIGAUD MAXIME 00:20:16 05:19 106 MI 106 M Sdis 01 - Ain
107 1004 PERRIN JULES 00:20:18 05:21 107 MI 107 M Sdis 01 - Ain
108 1005 PIN FLAVIEN 00:20:19 05:22 108 MI 108 M Sdis 01 - Ain
109 961 BALCONI ENZO 00:20:24 05:27 109 MI 109 M Sdis 01 - Ain
110 1009 MERMET LUCAS 00:20:24 05:27 110 MI 110 M Sdis 01 - Ain
111 971 BACCONNIER LUKA 00:20:26 05:29 111 MI 111 M Sdis 01 - Ain
112 933 HENRIQUES DOS REIS NOLANNE 00:20:27 05:30 112 MI 112 M Sdis 01 - Ain
113 976 RAMIREZ AURELIEN 00:20:27 05:30 113 MI 113 M Sdis 01 - Ain
114 1031 BERTRAND GAEL 00:20:28 05:31 114 MI 114 M Sdis 01 - Ain
115 995 HOSPITALIER THIBAULT 00:20:35 05:38 115 MI 115 M Sdis 01 - Ain
116 906 VANDEWALLE RYAN 00:20:38 05:41 116 MI 116 M Sdis 01 - Ain
117 960 AVINIERE PABLO 00:20:39 05:42 117 MI 117 M Sdis 01 - Ain
118 904 PERRAUD TYBO 00:20:41 05:44 118 MI 118 M Sdis 01 - Ain
119 940 SUVAY HASAN 00:20:44 05:47 119 MI 119 M Sdis 01 - Ain
120 1011 ROLAND-CARVALHOSA THIBO 00:20:51 05:54 120 MI 120 M Sdis 01 - Ain
121 1024 EL ABED MOHAMED ENINE 00:20:53 05:56 121 MI 121 M Sdis 01 - Ain
122 1036 MOOG NICOLAS 00:20:59 06:02 122 MI 122 M Sdis 01 - Ain
123 1074 MARTINAND Matteo 00:21:12 06:15 123 MI 123 M Sdis 26 - dr么me
124 1007 BROCARD JORIS 00:21:21 06:24 124 MI 124 M Sdis 01 - Ain
125 992 MAUPPIN VINCENT 00:21:29 06:32 125 MI 125 M Sdis 01 - Ain
126 977 SALAMON ARTHUR 00:21:35 06:38 126 MI 126 M Sdis 01 - Ain
127 936 OLIVIER ADRIEN 00:21:35 06:38 127 MI 127 M Sdis 01 - Ain
128 974 MONDINO FABIO 00:21:43 06:46 128 MI 128 M Sdis 01 - Ain
129 934 MARCOVECCHIO LORIS 00:21:45 06:48 129 MI 129 M Sdis 01 - Ain
130 1003 MERLIN LUCAS 00:21:46 06:49 130 MI 130 M Sdis 01 - Ain
131 990 FOURNAISE VALENTIN 00:21:46 06:49 131 MI 131 M Sdis 01 - Ain
132 979 BEN NACEUR YANIS 00:21:47 06:50 132 MI 132 M Sdis 01 - Ain
133 923 ROLANDEZ MAXIME 00:21:54 06:57 133 MI 133 M Sdis 01 - Ain
134 918 DELACHAT THEO 00:21:58 07:01 134 MI 134 M Sdis 01 - Ain
135 966 MAGNIN AUGUSTE 00:22:04 07:07 135 MI 135 M Sdis 01 - Ain
136 981 GONCALVES Miguel 00:22:05 07:08 136 MI 136 M Sdis 01 - Ain
137 1035 LAIEB YASSINE 00:22:07 07:10 137 MI 137 M Sdis 01 - Ain
138 898 PIVOT OLIVIER 00:22:24 07:27 138 MI 138 M Sdis 01 - Ain
139 891 ESTEVES BASTIEN 00:22:29 07:32 139 MI 139 M Sdis 01 - Ain
140 1008 JARJAVAL TERRY 00:22:37 07:40 140 MI 140 M Sdis 01 - Ain
141 930 MAGALHAES LUCA 00:22:39 07:42 141 MI 141 M Sdis 01 - Ain
142 1038 PRAT LORIS 00:22:46 07:49 142 MI 142 M Sdis 01 - Ain
143 919 EL HAJJ MOHAMED 00:22:59 08:02 143 MI 143 M Sdis 01 - Ain
144 939 SERVIGNE THIBAULT 00:23:01 08:04 144 MI 144 M Sdis 01 - Ain
145 911 ROUGER SAMUEL 00:23:02 08:05 145 MI 145 M Sdis 01 - Ain
146 937 PARIS MICHEL 00:23:27 08:30 146 MI 146 M Sdis 01 - Ain
147 915 AMMARI VICTOR 00:23:33 08:36 147 MI 147 M Sdis 01 - Ain
148 978 VERGNIEUX DORIAN 00:23:36 08:39 148 MI 148 M Sdis 01 - Ain
149 913 SCHONE MATTEO 00:24:01 09:04 149 MI 149 M Sdis 01 - Ain
150 1018 HUERTA HULEUX MAUDRIC 00:24:16 09:19 150 MI 150 M Sdis 01 - Ain
151 1030 ALVES Pierre 00:24:19 09:22 151 MI 151 M Sdis 01 - Ain
152 991 JAMBON MAXENCE 00:24:21 09:24 152 MI 152 M Sdis 01 - Ain
153 1057 LOBO Brian 00:24:36 09:39 153 MI 153 M Sdis 38 - is猫re
154 935 MARTIN YANNIS 00:24:42 09:45 154 MI 154 M Sdis 01 - Ain
155 907 VIOLY FEVRE AMBROISE 00:24:47 09:50 155 MI 155 M Sdis 01 - Ain
156 1029 SIRE CLEMENT 00:25:28 10:31 156 MI 156 M Sdis 01 - Ain
157 943 MULOT AYMERIC 00:26:13 11:16 157 MI 157 M Sdis 01 - Ain
158 912 ROUSSEL MARTIN 00:26:15 11:18 158 MI 158 M Sdis 01 - Ain
159 928 LAMIRAL MELVYN 00:26:28 11:31 159 MI 159 M Sdis 01 - Ain
160 1039 TITOULET GABIN 00:26:37 11:40 160 MI 160 M Sdis 01 - Ain
161 970 VILLARD FAUSTIN 00:26:40 11:43 161 MI 161 M Sdis 01 - Ain
162 1017 GONNARD BOURGEOIS VICTOR 00:26:41 11:44 162 MI 162 M Sdis 01 - Ain
163 951 MICHELI RAPHAEL 00:26:49 11:52 163 MI 163 M Sdis 01 - Ain
164 950 GOJON YOAN 00:26:49 11:52 164 MI 164 M Sdis 01 - Ain
165 905 RENOUD TOM 00:26:58 12:01 165 MI 165 M Sdis 01 - Ain
166 999 BLIN LORENZO 00:27:30 12:33 166 MI 166 M Sdis 01 - Ain
167 988 CHAPOLLET QUENTIN 00:28:48 13:51 167 MI 167 M Sdis 01 - Ain
168 890 EMAIN LUCAS 00:30:15 15:18 168 MI 168 M Sdis 01 - Ain
169 1026 KERMOUCHE ISSRA 00:33:58 19:01 169 MI 169 M Sdis 01 - Ain
  CROSS REGIONAL POMPIERS - MINIMES G- Chronom茅trage Perf Event 2019
 
Nombre ou lettres (3 minimum)
Classement    
Filtre :
Rang :